Onweerkansen (GFS)

Untitled Document





Vliegweer

[Source: ADDS]
METAR
EBBR 230950Z 26012KT 9999 FEW022 11/06 Q1028 NOSIG =
EBBR 230515Z 2306/2412 23010KT 9999 FEW035 PROB40 TEMPO 2307/2310 BKN010 BECMG 2313/2315 29011KT PROB30 2317/2324 BKN013 BECMG 2400/2402 SCT008 BKN012 PROB40 TEMPO 2403/2412 2500 -DZ BKN007
TAF
EBBR 230515Z 2306/2412 23010KT 9999 FEW035 PROB40 TEMPO 2307/2310 BKN010 BECMG 2313/2315 29011KT PROB30 2317/2324 BKN013 BECMG 2400/2402 SCT008 BKN012 PROB40 TEMPO 2403/2412 2500 -DZ BKN007 =

StormCell is een non profit organisatie zonder oogmerk tot sensatie